createdAt,value
2022-10-30T00:00:28.362Z,17.00
2022-10-30T00:03:31.514Z,17.52
2022-10-30T00:06:34.150Z,18.37
2022-10-30T00:09:36.945Z,17.85
2022-10-30T00:12:39.488Z,18.50
2022-10-30T00:15:48.606Z,18.08
2022-10-30T00:18:51.079Z,18.23
2022-10-30T00:24:57.078Z,18.42
2022-10-30T00:27:59.839Z,17.83
2022-10-30T00:31:03.800Z,17.05
2022-10-30T00:34:06.608Z,17.42
2022-10-30T00:37:11.352Z,17.57
2022-10-30T00:40:17.150Z,17.50
2022-10-30T00:43:49.217Z,17.25
2022-10-30T00:46:52.117Z,16.80
2022-10-30T00:53:35.313Z,17.63
2022-10-30T00:56:38.194Z,17.80
2022-10-30T00:59:43.841Z,16.90
2022-10-30T01:02:46.444Z,17.23
2022-10-30T01:05:52.823Z,18.00
2022-10-30T01:08:58.963Z,16.40
2022-10-30T01:12:03.103Z,16.85
2022-10-30T01:15:06.829Z,17.85
2022-10-30T01:18:23.216Z,16.25
2022-10-30T01:21:59.446Z,17.23
2022-10-30T01:25:29.989Z,17.50
2022-10-30T01:28:40.826Z,16.65
2022-10-30T01:31:57.537Z,16.73
2022-10-30T01:35:07.672Z,17.05
2022-10-30T01:38:36.319Z,16.55
2022-10-30T01:41:39.061Z,18.37
2022-10-30T01:44:41.952Z,17.33
2022-10-30T01:47:53.294Z,17.23
2022-10-30T01:51:26.665Z,17.12
2022-10-30T01:54:33.621Z,17.48
2022-10-30T01:58:14.385Z,16.77
2022-10-30T02:01:17.656Z,17.15
2022-10-30T02:04:20.731Z,17.70
2022-10-30T02:07:24.280Z,17.33
2022-10-30T02:10:27.897Z,17.23
2022-10-30T02:13:31.240Z,18.23
2022-10-30T02:16:35.389Z,16.95
2022-10-30T02:19:38.057Z,15.73
2022-10-30T02:22:41.215Z,17.60
2022-10-30T02:25:43.778Z,17.08
2022-10-30T02:28:46.711Z,16.50
2022-10-30T02:31:49.303Z,15.85
2022-10-30T02:34:52.094Z,15.93
2022-10-30T02:37:54.810Z,16.80
2022-10-30T02:40:58.753Z,17.75
2022-10-30T02:44:01.781Z,17.43
2022-10-30T02:47:05.518Z,16.77
2022-10-30T02:50:08.758Z,17.55
2022-10-30T02:53:11.682Z,16.73
2022-10-30T02:56:15.807Z,16.48
2022-10-30T02:59:19.513Z,16.07
2022-10-30T03:02:23.556Z,15.93
2022-10-30T03:05:26.556Z,16.02
2022-10-30T03:08:29.318Z,17.30
2022-10-30T03:11:34.114Z,15.85
2022-10-30T03:14:36.574Z,16.40
2022-10-30T03:17:42.565Z,16.83
2022-10-30T03:20:46.896Z,16.60
2022-10-30T03:23:50.686Z,16.35
2022-10-30T03:26:53.266Z,16.62
2022-10-30T03:29:56.232Z,16.00
2022-10-30T03:33:00.979Z,16.02
2022-10-30T03:36:06.112Z,16.87
2022-10-30T03:39:08.701Z,16.02
2022-10-30T03:42:11.727Z,15.82
2022-10-30T03:45:14.513Z,13.90
2022-10-30T03:48:18.989Z,13.57
2022-10-30T03:51:21.835Z,14.25
2022-10-30T03:54:25.938Z,13.38
2022-10-30T03:57:28.737Z,15.07
2022-10-30T04:00:32.517Z,14.03
2022-10-30T04:03:35.570Z,14.52
2022-10-30T04:06:38.109Z,15.20
2022-10-30T04:09:40.945Z,15.20
2022-10-30T04:12:43.586Z,13.60
2022-10-30T04:15:54.245Z,14.73
2022-10-30T04:19:00.462Z,14.52
2022-10-30T04:22:03.248Z,14.52
2022-10-30T04:25:06.440Z,14.80
2022-10-30T04:28:10.209Z,14.93
2022-10-30T04:31:13.082Z,14.60
2022-10-30T04:34:16.398Z,14.40
2022-10-30T04:37:18.981Z,13.82
2022-10-30T04:40:24.265Z,15.10
2022-10-30T04:43:27.538Z,14.23
2022-10-30T04:46:31.232Z,16.07
2022-10-30T04:49:34.756Z,15.05
2022-10-30T04:52:38.030Z,15.27
2022-10-30T04:55:40.574Z,15.30
2022-10-30T04:58:45.029Z,15.18
2022-10-30T05:01:47.749Z,13.87
2022-10-30T05:04:50.711Z,13.95
2022-10-30T05:07:53.197Z,15.30
2022-10-30T05:10:56.378Z,14.50
2022-10-30T05:13:59.317Z,14.07
2022-10-30T05:17:03.212Z,14.90
2022-10-30T05:20:06.241Z,15.65
2022-10-30T05:23:10.094Z,14.73
2022-10-30T05:26:12.536Z,14.63
2022-10-30T05:29:15.666Z,15.02
2022-10-30T05:32:18.319Z,15.37
2022-10-30T05:35:21.364Z,14.00
2022-10-30T05:38:24.241Z,13.93
2022-10-30T05:41:28.226Z,14.68
2022-10-30T05:44:58.769Z,14.87
2022-10-30T05:47:56.364Z,14.63
2022-10-30T05:50:59.217Z,14.63
2022-10-30T05:54:02.289Z,14.80
2022-10-30T05:57:08.079Z,15.55
2022-10-30T06:00:11.991Z,14.60
2022-10-30T06:03:17.697Z,15.37
2022-10-30T06:06:21.179Z,13.35
2022-10-30T06:09:23.732Z,14.05
2022-10-30T06:12:27.663Z,13.13
2022-10-30T06:15:31.842Z,13.10
2022-10-30T06:18:34.817Z,12.37
2022-10-30T06:21:38.005Z,13.45
2022-10-30T06:24:40.818Z,12.48
2022-10-30T06:27:44.214Z,12.68
2022-10-30T06:30:48.431Z,12.43
2022-10-30T06:33:51.029Z,12.23
2022-10-30T06:36:54.123Z,12.45
2022-10-30T06:39:57.891Z,12.02
2022-10-30T06:43:02.524Z,13.65
2022-10-30T06:49:14.630Z,13.00
2022-10-30T06:52:19.552Z,12.48
2022-10-30T06:55:23.574Z,11.63
2022-10-30T06:58:27.053Z,12.88
2022-10-30T07:01:30.236Z,11.95
2022-10-30T07:04:32.874Z,12.70
2022-10-30T07:07:35.711Z,12.65
2022-10-30T07:10:38.662Z,12.02
2022-10-30T07:13:41.867Z,11.70
2022-10-30T07:16:44.810Z,12.95
2022-10-30T07:19:48.476Z,12.10
2022-10-30T07:22:51.930Z,11.23
2022-10-30T07:25:57.297Z,12.25
2022-10-30T07:29:04.697Z,12.20
2022-10-30T07:32:08.877Z,11.77
2022-10-30T07:35:13.119Z,12.23
2022-10-30T07:38:17.857Z,11.88
2022-10-30T07:41:22.619Z,12.55
2022-10-30T07:44:26.686Z,10.40
2022-10-30T07:47:30.662Z,11.38
2022-10-30T07:50:38.617Z,12.33
2022-10-30T07:53:41.658Z,10.95
2022-10-30T07:56:45.342Z,10.88
2022-10-30T07:59:51.366Z,11.32
2022-10-30T08:02:58.170Z,11.52
2022-10-30T08:06:03.276Z,10.23
2022-10-30T08:09:06.387Z,10.50
2022-10-30T08:12:09.356Z,10.20
2022-10-30T08:15:12.288Z,10.15
2022-10-30T08:18:15.285Z,10.85
2022-10-30T08:21:18.090Z,9.83
2022-10-30T08:24:22.143Z,10.43
2022-10-30T08:27:25.083Z,9.98
2022-10-30T08:30:30.614Z,10.75
2022-10-30T08:33:33.343Z,10.57
2022-10-30T08:36:41.744Z,10.63
2022-10-30T08:39:46.779Z,13.23
2022-10-30T08:42:52.475Z,10.73
2022-10-30T08:45:58.120Z,10.35
2022-10-30T08:49:01.824Z,11.35
2022-10-30T08:52:08.716Z,11.37
2022-10-30T08:55:12.484Z,11.63
2022-10-30T08:58:17.085Z,12.02
2022-10-30T09:01:21.472Z,11.68
2022-10-30T09:04:32.089Z,12.88
2022-10-30T09:07:36.074Z,11.37
2022-10-30T09:10:40.081Z,11.00
2022-10-30T09:13:43.586Z,11.88
2022-10-30T09:16:46.748Z,12.13
2022-10-30T09:19:50.501Z,13.10
2022-10-30T09:22:53.338Z,11.77
2022-10-30T09:25:59.495Z,12.13
2022-10-30T09:29:03.265Z,13.93
2022-10-30T09:32:11.971Z,13.00
2022-10-30T09:35:15.029Z,13.18
2022-10-30T09:38:18.078Z,12.93
2022-10-30T09:41:20.489Z,13.23
2022-10-30T09:44:26.743Z,13.40
2022-10-30T09:47:57.138Z,13.52
2022-10-30T09:51:19.653Z,13.02
2022-10-30T09:54:30.228Z,13.00
2022-10-30T09:57:58.267Z,11.80
2022-10-30T10:01:16.234Z,12.27
2022-10-30T10:04:31.352Z,12.60
2022-10-30T10:07:41.515Z,13.65
2022-10-30T10:10:54.656Z,12.67
2022-10-30T10:14:03.742Z,13.40
2022-10-30T10:17:13.829Z,13.10
2022-10-30T10:20:25.420Z,11.88
2022-10-30T10:23:58.040Z,14.15
2022-10-30T10:27:13.540Z,13.07
2022-10-30T10:30:22.968Z,13.27
2022-10-30T10:33:37.628Z,13.18
2022-10-30T10:37:12.616Z,13.02
2022-10-30T10:40:15.834Z,13.88
2022-10-30T10:43:21.651Z,11.77
2022-10-30T10:46:30.244Z,12.13
2022-10-30T10:49:46.424Z,11.43
2022-10-30T10:52:55.937Z,13.25
2022-10-30T10:56:00.192Z,13.52
2022-10-30T10:59:40.472Z,12.70
2022-10-30T11:03:05.127Z,12.98
2022-10-30T11:06:25.041Z,12.50
2022-10-30T11:09:30.926Z,13.32
2022-10-30T11:12:36.650Z,11.90
2022-10-30T11:16:10.583Z,12.67
2022-10-30T11:19:13.126Z,13.02
2022-10-30T11:22:47.291Z,12.57
2022-10-30T11:25:49.779Z,12.75
2022-10-30T11:28:59.145Z,13.43
2022-10-30T11:32:04.077Z,14.30
2022-10-30T11:35:09.992Z,14.27
2022-10-30T11:38:16.905Z,14.70
2022-10-30T11:41:20.675Z,14.13
2022-10-30T11:44:25.815Z,14.40
2022-10-30T11:47:38.749Z,14.20
2022-10-30T11:50:46.080Z,14.23
2022-10-30T11:53:50.441Z,13.32
2022-10-30T11:56:54.276Z,12.85
2022-10-30T12:00:03.740Z,13.75
2022-10-30T12:03:29.981Z,13.20
2022-10-30T12:06:32.857Z,13.45
2022-10-30T12:09:45.898Z,13.75
2022-10-30T12:12:50.921Z,8.95
2022-10-30T12:16:09.036Z,13.38
2022-10-30T12:19:15.425Z,13.17
2022-10-30T12:22:30.707Z,12.57
2022-10-30T12:25:33.628Z,12.45
2022-10-30T12:28:36.704Z,12.37
2022-10-30T12:31:44.074Z,12.25
2022-10-30T12:34:51.052Z,12.03
2022-10-30T12:37:54.425Z,13.20
2022-10-30T12:41:24.880Z,13.75
2022-10-30T12:44:40.406Z,13.05
2022-10-30T12:47:54.456Z,13.95
2022-10-30T12:51:26.818Z,13.10
2022-10-30T12:54:48.222Z,13.10
2022-10-30T12:58:21.477Z,13.07
2022-10-30T13:01:42.534Z,13.40
2022-10-30T13:04:49.992Z,14.18
2022-10-30T13:08:00.513Z,13.97
2022-10-30T13:11:24.854Z,15.45
2022-10-30T13:14:54.568Z,13.55
2022-10-30T13:17:59.430Z,14.23
2022-10-30T13:21:17.991Z,9.35
2022-10-30T13:24:37.837Z,13.60
2022-10-30T13:27:46.197Z,13.15
2022-10-30T13:31:26.824Z,14.43
2022-10-30T13:34:55.828Z,14.48
2022-10-30T13:38:06.385Z,14.30
2022-10-30T13:41:41.373Z,15.90
2022-10-30T13:44:59.723Z,14.75
2022-10-30T13:48:16.617Z,15.40
2022-10-30T13:51:19.341Z,14.52
2022-10-30T13:54:33.755Z,15.30
2022-10-30T13:57:44.316Z,14.77
2022-10-30T14:00:59.212Z,15.50
2022-10-30T14:04:07.032Z,13.80
2022-10-30T14:07:33.739Z,14.55
2022-10-30T14:10:45.699Z,14.90
2022-10-30T14:13:58.496Z,14.53
2022-10-30T14:17:17.856Z,15.32
2022-10-30T14:20:20.264Z,15.95
2022-10-30T14:23:25.896Z,14.80
2022-10-30T14:26:28.264Z,16.65
2022-10-30T14:29:36.827Z,15.67
2022-10-30T14:32:39.925Z,14.77
2022-10-30T14:35:42.791Z,16.40
2022-10-30T14:39:13.136Z,14.65
2022-10-30T14:42:25.245Z,16.37
2022-10-30T14:45:43.510Z,15.93
2022-10-30T14:48:52.250Z,16.83
2022-10-30T14:52:08.421Z,15.93
2022-10-30T14:55:22.076Z,14.15
2022-10-30T14:58:26.715Z,14.63
2022-10-30T15:01:39.581Z,16.93
2022-10-30T15:04:52.649Z,16.05
2022-10-30T15:08:22.348Z,17.37
2022-10-30T15:11:47.654Z,16.62
2022-10-30T15:14:56.514Z,16.87
2022-10-30T15:18:03.380Z,17.70
2022-10-30T15:21:07.277Z,16.77
2022-10-30T15:24:16.334Z,16.73
2022-10-30T15:27:20.736Z,17.73
2022-10-30T15:30:25.901Z,16.90
2022-10-30T15:33:31.550Z,15.37
2022-10-30T15:36:41.880Z,16.60
2022-10-30T15:39:44.687Z,15.57
2022-10-30T15:42:48.581Z,16.92
2022-10-30T15:45:52.142Z,15.20
2022-10-30T15:48:54.656Z,15.57
2022-10-30T15:51:57.927Z,16.10
2022-10-30T15:55:06.830Z,16.23
2022-10-30T15:58:16.519Z,17.17
2022-10-30T16:01:39.220Z,15.95
2022-10-30T16:04:45.288Z,16.13
2022-10-30T16:07:47.975Z,15.70
2022-10-30T16:10:57.269Z,16.50
2022-10-30T16:14:08.424Z,15.02
2022-10-30T16:17:11.943Z,15.88
2022-10-30T16:20:15.449Z,14.93
2022-10-30T16:23:20.189Z,15.82
2022-10-30T16:26:30.142Z,15.43
2022-10-30T16:29:34.148Z,17.60
2022-10-30T16:32:37.032Z,18.42
2022-10-30T16:35:40.298Z,16.90
2022-10-30T16:38:44.458Z,17.55
2022-10-30T16:41:48.311Z,17.35
2022-10-30T16:44:51.204Z,18.85
2022-10-30T16:48:08.455Z,18.95
2022-10-30T16:51:16.213Z,13.43
2022-10-30T16:54:28.541Z,16.55
2022-10-30T16:57:41.899Z,19.60
2022-10-30T17:00:50.656Z,18.73
2022-10-30T17:03:53.825Z,20.35
2022-10-30T17:07:05.601Z,20.60
2022-10-30T17:10:32.362Z,18.27
2022-10-30T17:13:35.704Z,18.02
2022-10-30T17:16:39.427Z,19.08
2022-10-30T17:19:47.445Z,19.70
2022-10-30T17:22:52.435Z,20.23
2022-10-30T17:25:55.661Z,20.10
2022-10-30T17:28:58.657Z,21.20
2022-10-30T17:32:04.323Z,21.77
2022-10-30T17:35:16.049Z,20.17
2022-10-30T17:38:19.020Z,19.73
2022-10-30T17:41:21.880Z,19.70
2022-10-30T17:44:25.550Z,18.48
2022-10-30T17:47:28.778Z,19.42
2022-10-30T17:50:31.974Z,20.48
2022-10-30T17:53:34.510Z,19.50
2022-10-30T17:56:37.583Z,19.55
2022-10-30T17:59:40.838Z,22.27
2022-10-30T18:02:43.913Z,20.80
2022-10-30T18:05:47.106Z,23.02
2022-10-30T18:08:50.936Z,21.93
2022-10-30T18:11:54.052Z,22.42
2022-10-30T18:14:56.593Z,22.95
2022-10-30T18:17:59.624Z,22.73
2022-10-30T18:21:02.277Z,21.87
2022-10-30T18:24:12.494Z,22.03
2022-10-30T18:27:15.073Z,22.83
2022-10-30T18:30:19.234Z,22.17
2022-10-30T18:33:22.483Z,22.58
2022-10-30T18:36:26.097Z,20.92
2022-10-30T18:39:28.802Z,22.70
2022-10-30T18:42:32.078Z,20.35
2022-10-30T18:45:40.512Z,21.52
2022-10-30T18:48:44.650Z,21.52
2022-10-30T18:51:47.454Z,21.92
2022-10-30T18:54:50.536Z,22.40
2022-10-30T18:57:53.476Z,22.10
2022-10-30T19:01:11.490Z,23.45
2022-10-30T19:04:20.838Z,23.48
2022-10-30T19:07:26.138Z,22.98
2022-10-30T19:10:30.984Z,22.27
2022-10-30T19:13:34.047Z,23.45
2022-10-30T19:16:36.652Z,23.65
2022-10-30T19:19:39.516Z,23.20
2022-10-30T19:22:42.484Z,22.95
2022-10-30T19:25:45.945Z,23.10
2022-10-30T19:28:48.678Z,22.35
2022-10-30T19:31:51.622Z,21.05
2022-10-30T19:34:54.329Z,22.87
2022-10-30T19:37:57.638Z,22.15
2022-10-30T19:41:00.967Z,22.23
2022-10-30T19:44:04.120Z,23.00
2022-10-30T19:47:09.125Z,23.10
2022-10-30T19:50:18.619Z,22.10
2022-10-30T19:53:21.691Z,21.67
2022-10-30T19:56:24.675Z,21.87
2022-10-30T19:59:27.135Z,21.65
2022-10-30T20:02:30.306Z,21.80
2022-10-30T20:05:39.144Z,19.62
2022-10-30T20:08:42.243Z,20.83
2022-10-30T20:11:45.196Z,21.47
2022-10-30T20:14:47.843Z,22.25
2022-10-30T20:17:50.865Z,22.92
2022-10-30T20:20:55.187Z,22.58
2022-10-30T20:23:58.055Z,21.80
2022-10-30T20:27:01.017Z,23.77
2022-10-30T20:30:05.193Z,21.30
2022-10-30T20:33:11.189Z,22.48
2022-10-30T20:36:14.675Z,21.50
2022-10-30T20:39:17.613Z,21.37
2022-10-30T20:42:22.226Z,20.63
2022-10-30T20:45:27.905Z,20.90
2022-10-30T20:48:31.512Z,20.42
2022-10-30T20:51:34.259Z,20.02
2022-10-30T20:54:37.317Z,19.80
2022-10-30T20:57:42.861Z,19.87
2022-10-30T21:00:46.236Z,22.48
2022-10-30T21:03:50.434Z,20.42
2022-10-30T21:06:53.170Z,20.12
2022-10-30T21:09:55.678Z,20.50
2022-10-30T21:13:02.108Z,21.07
2022-10-30T21:16:09.134Z,21.25
2022-10-30T21:19:12.183Z,20.08
2022-10-30T21:22:14.958Z,20.35
2022-10-30T21:25:18.810Z,19.65
2022-10-30T21:28:22.035Z,19.77
2022-10-30T21:31:24.849Z,19.98
2022-10-30T21:34:27.707Z,20.45
2022-10-30T21:37:38.229Z,21.12
2022-10-30T21:40:41.257Z,20.35
2022-10-30T21:43:48.222Z,20.03
2022-10-30T21:46:51.235Z,20.27
2022-10-30T21:49:55.434Z,19.85
2022-10-30T21:53:00.398Z,21.73
2022-10-30T21:56:10.028Z,21.45
2022-10-30T21:59:12.830Z,21.23
2022-10-30T22:02:15.717Z,22.77
2022-10-30T22:05:18.780Z,22.92
2022-10-30T22:08:21.806Z,21.75
2022-10-30T22:11:27.002Z,21.27
2022-10-30T22:14:29.715Z,23.10
2022-10-30T22:17:34.898Z,24.00
2022-10-30T22:20:38.212Z,22.50
2022-10-30T22:23:41.603Z,21.92
2022-10-30T22:26:44.270Z,23.12
2022-10-30T22:29:50.697Z,22.23
2022-10-30T22:32:53.220Z,23.48
2022-10-30T22:35:57.471Z,22.95
2022-10-30T22:39:06.133Z,21.00
2022-10-30T22:42:08.917Z,22.95
2022-10-30T22:45:11.484Z,22.07
2022-10-30T22:48:14.255Z,22.83
2022-10-30T22:51:18.198Z,21.37
2022-10-30T22:54:20.907Z,23.00
2022-10-30T22:57:23.661Z,22.62
2022-10-30T23:00:27.758Z,22.47
2022-10-30T23:03:30.670Z,21.62
2022-10-30T23:06:34.494Z,22.50
2022-10-30T23:09:37.088Z,22.70
2022-10-30T23:12:39.956Z,24.33
2022-10-30T23:15:42.398Z,23.07
2022-10-30T23:18:46.029Z,22.87
2022-10-30T23:21:48.613Z,23.35
2022-10-30T23:24:51.327Z,23.73
2022-10-30T23:27:53.875Z,23.70
2022-10-30T23:30:56.683Z,23.30
2022-10-30T23:34:01.577Z,23.55
2022-10-30T23:37:04.285Z,22.25
2022-10-30T23:40:07.393Z,24.65
2022-10-30T23:43:10.191Z,23.70
2022-10-30T23:46:12.704Z,23.73
2022-10-30T23:49:15.879Z,23.90
2022-10-30T23:52:18.426Z,24.50
2022-10-30T23:55:21.231Z,24.42
2022-10-30T23:58:23.827Z,23.80
